This is the latest recevied weather packets stored in our database for station/object N5COP-13. If no packets are shown the sender has not sent any weather packets the latest 1 day(s).
| Time | Temp. | Humidity | Pressure | Rain* | Wind** | Luminosity | Snow |
|---|---|---|---|---|---|---|---|
| 1778032886 | 12.22° C | 58% | 1010.8 hPa | 0 mm | 4.02 m/s, 72° | 0 W/m² | - |
| 1778032583 | 12.78° C | 56% | 1010.4 hPa | 0 mm | 3.58 m/s, 58° | 0 W/m² | - |
| 1778032280 | 12.78° C | 53% | 1010.5 hPa | 0 mm | 6.71 m/s, 67° | 0 W/m² | - |
| 1778031978 | 13.33° C | 51% | 1010.5 hPa | 0 mm | 4.92 m/s, 87° | 1 W/m² | - |
| 1778031673 | 13.33° C | 49% | 1010.2 hPa | 0 mm | 7.6 m/s, 73° | 1 W/m² | - |
| 1778031371 | 13.89° C | 48% | 1010.6 hPa | 0 mm | 3.58 m/s, 50° | 3 W/m² | - |
| 1778031068 | 13.89° C | 47% | 1010.3 hPa | 0 mm | 4.02 m/s, 37° | 3 W/m² | - |
| 1778030764 | 13.89° C | 47% | 1010.4 hPa | 0 mm | 5.81 m/s, 37° | 3 W/m² | - |
| 1778030460 | 14.44° C | 46% | 1010.2 hPa | 0 mm | 4.02 m/s, 40° | 4 W/m² | - |
| 1778030159 | 14.44° C | 46% | 1009.8 hPa | 0 mm | 3.58 m/s, 30° | 7 W/m² | - |
| 1778029854 | 14.44° C | 46% | 1009.8 hPa | 0 mm | 3.13 m/s, 41° | 14 W/m² | - |
| 1778029548 | 14.44° C | 46% | 1009.5 hPa | 0 mm | 2.68 m/s, 55° | 19 W/m² | - |
| 1778029244 | 14.44° C | 46% | 1009.2 hPa | 0 mm | 6.71 m/s, 73° | 32 W/m² | - |
| 1778028942 | 15° C | 46% | 1009 hPa | 0 mm | 4.47 m/s, 81° | 41 W/m² | - |
| 1778028637 | 15° C | 45% | 1009.2 hPa | 0 mm | 4.92 m/s, 75° | 43 W/m² | - |
| 1778028335 | 15° C | 45% | 1008.9 hPa | 0 mm | 7.6 m/s, 76° | 53 W/m² | - |
| 1778028032 | 15.56° C | 44% | 1008.7 hPa | 0 mm | 4.02 m/s, 67° | 59 W/m² | - |
| 1778027728 | 15.56° C | 44% | 1008.6 hPa | 0 mm | 3.58 m/s, 60° | 65 W/m² | - |
| 1778027424 | 15.56° C | 43% | 1008.9 hPa | 0 mm | 6.71 m/s, 63° | 72 W/m² | - |
| 1778027120 | 16.11° C | 42% | 1008.5 hPa | 0 mm | 8.05 m/s, 78° | 82 W/m² | - |
| 1778026816 | 16.67° C | 42% | 1008.5 hPa | 0 mm | 6.71 m/s, 64° | 95 W/m² | - |
| 1778026513 | 16.67° C | 42% | 1008.3 hPa | 0 mm | 9.39 m/s, 81° | 109 W/m² | - |
| 1778026210 | 16.67° C | 41% | 1008.4 hPa | 0 mm | 5.81 m/s, 70° | 129 W/m² | - |
| 1778025908 | 17.22° C | 41% | 1008.4 hPa | 0 mm | 6.26 m/s, 83° | 146 W/m² | - |
| 1778025605 | 16.67° C | 41% | 1008.4 hPa | 0 mm | 8.49 m/s, 86° | 156 W/m² | - |
* Rain latest hour (hover to see other rain measurements)
** Current wind speed in m/s (hover to see current wind gust speed)